CheckWX is a tool to help pilots better visualize weather data.  It is not intended as a substitute for an official pre-flight weather briefing.

05:14:19 UTC

KAAA METAR
Logan County Airport
Lincoln, Illinois, USA
Current

19 mins ago

KAAA 240455Z AUTO 22005KT 10SM CLR 10/08 A2939 RMK AO2 T00980078
Observed
Feb-24 @ 04:55 UTC
Wind
  • 220° at 5 KTS
Visibility
10 SM
Flight Rules
VFR
Cloud Levels
  • Clear skies
Temperature
10°C / 50°F
Dewpoint
C / 46°F
Humidity
88%
Altimeter
29.39" Hg
Pressure
995.22 hPa
Previous

39 mins ago

KAAA 240435Z AUTO 23006KT 10SM CLR 10/09 A2941 RMK AO2 T01010090
Observed
Feb-24 @ 04:35 UTC
Wind
  • 230° at 6 KTS
Visibility
10 SM
Flight Rules
VFR
Cloud Levels
  • Clear skies
Temperature
10°C / 50°F
Dewpoint
C / 48°F
Humidity
94%
Altimeter
29.41" Hg
Pressure
995.92 hPa
Previous

59 mins ago

KAAA 240415Z AUTO 23005KT 10SM CLR 11/10 A2942 RMK AO2 T01060101
Observed
Feb-24 @ 04:15 UTC
Wind
  • 230° at 5 KTS
Visibility
10 SM
Flight Rules
VFR
Cloud Levels
  • Clear skies
Temperature
11°C / 52°F
Dewpoint
10°C / 50°F
Humidity
94%
Altimeter
29.42" Hg
Pressure
996.32 hPa